Dione Sky — ZCCP5 — position and weather

sailwx.info

Track history (hours):
 
Tides and Currents Weather Stations Pressure Air Temp Water Temp Dewpoint Dewpoint Depression Visibility Wind Speed Wind Dir Waves Ship Positions

Dione Sky

Last reported at 2018-Jul-23 14:30 UTC. Time now 2018-Aug-20 16:48 UTC.
Position N 38°04' E 022°46'.
Warning: this ship's position is 28 days out of date.

Length 46 m; draft 3.2 m.

Type: Other ship. MMSI: 319002500.

Date/timePositionNaut miles runAvg speedWind from/ knotsBaromVisibWave heightAir tempDewpointWater temp
2018-Jul-23 14:30N 38°04' E 022°46'1 1.5
2018-Jul-23 14:00N 38°04' E 022°46'3 5.7
2018-Jul-23 13:30N 38°02' E 022°49'2 4.5
2018-Jul-23 13:00N 38°01' E 022°52'3 6.7
2018-Jul-23 12:30N 37°59' E 022°55'4 7.1
2018-Jul-23 12:00N 37°57' E 022°58'3 5.6
2018-Jul-23 11:30N 37°55' E 023°01'0 0.1
2018-Jul-23 11:00N 37°55' E 023°01'1 1.7
2018-Jul-23 10:30N 37°54' E 023°02'5 9.6
2018-Jul-23 10:00N 37°52' E 023°07'5 9.8
2018-Jul-23 09:30N 37°49' E 023°12'510.1
2018-Jul-23 09:00N 37°47' E 023°18'510.2
2018-Jul-23 08:30N 37°44' E 023°24'1 2.8
2018-Jul-23 08:00N 37°43' E 023°24'0 0.0
2018-Jul-23 07:30N 37°43' E 023°24'0 0.0
2018-Jul-23 07:00N 37°43' E 023°24'0 0.0
2018-Jul-23 06:31N 37°43' E 023°24'0 0.0
2018-Jul-23 06:00N 37°43' E 023°24'0 0.0
2018-Jul-23 05:30N 37°43' E 023°24'0 0.0
2018-Jul-23 05:00N 37°43' E 023°24'0 0.0
2018-Jul-23 04:30N 37°43' E 023°24'0 0.0
2018-Jul-23 04:00N 37°43' E 023°24'0 0.0
2018-Jul-23 03:30N 37°43' E 023°24'0 0.0
2018-Jul-23 03:00N 37°43' E 023°24'0 0.0
2018-Jul-23 02:30N 37°43' E 023°24'0 0.0
2018-Jul-23 02:00N 37°43' E 023°24'0 0.0
2018-Jul-23 01:30N 37°43' E 023°24'0 0.0
2018-Jul-23 01:00N 37°43' E 023°24'0 0.0
2018-Jul-23 00:30N 37°43' E 023°24'0 0.0
2018-Jul-23 00:00N 37°43' E 023°24'0 0.0
2018-Jul-22 23:30N 37°43' E 023°24'0 0.0
2018-Jul-22 23:00N 37°43' E 023°24'0 0.0
2018-Jul-22 22:30N 37°43' E 023°24'1 2.2
2018-Jul-22 22:00N 37°43' E 023°25'2 4.8
2018-Jul-22 21:30N 37°42' E 023°28'0 0.0
2018-Jul-22 20:59N 37°42' E 023°28'0 0.0
2018-Jul-22 20:30N 37°42' E 023°28'0 0.0
2018-Jul-22 20:00N 37°42' E 023°28'0 0.0
2018-Jul-22 19:29N 37°42' E 023°28'0 0.0
2018-Jul-22 19:00N 37°42' E 023°28'0 0.0
2018-Jul-22 18:30N 37°42' E 023°28'0 0.0
2018-Jul-22 18:00N 37°42' E 023°28'0 0.0
2018-Jul-22 17:30N 37°42' E 023°28'0 0.0
2018-Jul-22 17:00N 37°42' E 023°28'0 0.0
2018-Jul-22 16:30N 37°42' E 023°28'0 0.0
2018-Jul-22 16:00N 37°42' E 023°28'0 0.0
2018-Jul-22 15:00N 37°42' E 023°28'0 0.0
2018-Jul-22 14:30N 37°42' E 023°28'0 0.0
2018-Jul-22 14:00N 37°42' E 023°28'0 0.0
2018-Jul-22 13:30N 37°42' E 023°28'0 0.1
2018-Jul-22 13:00N 37°42' E 023°28'0 0.0
2018-Jul-22 12:25N 37°42' E 023°28'0 0.0
2018-Jul-22 11:59N 37°42' E 023°28'0 0.0
2018-Jul-22 11:30N 37°42' E 023°28'0 0.0
2018-Jul-22 11:00N 37°42' E 023°28'0 0.0
2018-Jul-22 10:30N 37°42' E 023°28'0 0.0
2018-Jul-22 09:58N 37°42' E 023°28'0 0.0
2018-Jul-22 09:27N 37°42' E 023°28'0 0.0
2018-Jul-22 08:58N 37°42' E 023°28'0 0.0
2018-Jul-22 08:30N 37°42' E 023°28'0 0.0
2018-Jul-22 07:59N 37°42' E 023°28'0 0.0
2018-Jul-22 07:30N 37°42' E 023°28'0 0.0
2018-Jul-22 07:00N 37°42' E 023°28'0 0.0
2018-Jul-22 06:29N 37°42' E 023°28'0 0.0
2018-Jul-22 06:00N 37°42' E 023°28'0 0.0
2018-Jul-22 05:30N 37°42' E 023°28'0 0.0
2018-Jul-22 05:00N 37°42' E 023°28'0 0.0
2018-Jul-22 04:30N 37°42' E 023°28'0 0.0
2018-Jul-22 03:57N 37°42' E 023°28'0 0.0
2018-Jul-22 03:28N 37°42' E 023°28'0 0.0
2018-Jul-22 03:00N 37°42' E 023°28'0 0.0
2018-Jul-22 02:30N 37°42' E 023°28'0 0.0
2018-Jul-22 01:47N 37°42' E 023°28'0 0.0
2018-Jul-22 01:29N 37°42' E 023°28'0 0.0
2018-Jul-22 01:00N 37°42' E 023°28'0 0.0
2018-Jul-22 00:29N 37°42' E 023°28'0 0.0
2018-Jul-21 23:58N 37°42' E 023°28'0 0.0
2018-Jul-21 23:30N 37°42' E 023°28'0 0.0
2018-Jul-21 23:00N 37°42' E 023°28'0 0.0
2018-Jul-21 22:30N 37°42' E 023°28'0 0.0
2018-Jul-21 22:00N 37°42' E 023°28'0 0.0
2018-Jul-21 21:30N 37°42' E 023°28'0 0.0
2018-Jul-21 21:00N 37°42' E 023°28'0 0.0
2018-Jul-21 20:23N 37°42' E 023°28'0 0.0
2018-Jul-21 19:42N 37°42' E 023°28'0 0.0
2018-Jul-21 19:30N 37°42' E 023°28'0 0.0
2018-Jul-21 19:00N 37°42' E 023°28'0 0.0
2018-Jul-21 18:30N 37°42' E 023°28'0 0.0
2018-Jul-21 18:00N 37°42' E 023°28'0 0.0
2018-Jul-21 17:30N 37°42' E 023°28'0 0.0
2018-Jul-21 17:00N 37°42' E 023°28'0 0.6
2018-Jul-21 16:30N 37°42' E 023°27'3 6.4
2018-Jul-21 16:00N 37°39' E 023°30'611.5
2018-Jul-21 15:30N 37°36' E 023°36'611.4
2018-Jul-21 15:00N 37°34' E 023°42'5210.9
2018-Jul-21 10:13N 37°19' E 024°46'211.0
2018-Jul-21 10:00N 37°19' E 024°48'510.5
2018-Jul-21 09:30N 37°20' E 024°55'510.7
2018-Jul-21 09:00N 37°20' E 025°02'510.5
2018-Jul-21 08:30N 37°21' E 025°08'510.8
2018-Jul-21 08:00N 37°21' E 025°15'510.3
2018-Jul-21 07:30N 37°24' E 025°20'0 0.4
2018-Jul-21 07:00N 37°24' E 025°21'0 0.0
2018-Jul-21 06:30N 37°24' E 025°21'0 0.0
2018-Jul-21 06:00N 37°24' E 025°21'0 0.0
2018-Jul-21 05:30N 37°24' E 025°21'0 0.0
2018-Jul-21 05:00N 37°24' E 025°21'0 0.0
2018-Jul-21 04:30N 37°24' E 025°21'0 0.0
2018-Jul-21 04:00N 37°24' E 025°21'0 0.0
2018-Jul-21 03:30N 37°24' E 025°21'0 0.0
2018-Jul-21 03:00N 37°24' E 025°21'0 0.0
2018-Jul-21 02:30N 37°24' E 025°21'0 0.0
2018-Jul-21 02:00N 37°24' E 025°21'0 0.0
2018-Jul-21 01:30N 37°24' E 025°21'0 0.0
2018-Jul-21 01:00N 37°24' E 025°21'0 0.0
2018-Jul-21 00:30N 37°24' E 025°21'0 0.0
2018-Jul-21 00:00N 37°24' E 025°21'0 0.0
2018-Jul-20 23:30N 37°24' E 025°21'0 0.0
2018-Jul-20 23:00N 37°24' E 025°21'0 0.0
2018-Jul-20 22:30N 37°24' E 025°21'0 0.0
2018-Jul-20 22:00N 37°24' E 025°21'0 0.0
2018-Jul-20 21:30N 37°24' E 025°21'0 0.0
2018-Jul-20 21:00N 37°24' E 025°21'0 0.0
2018-Jul-20 20:30N 37°24' E 025°21'0 0.0
2018-Jul-20 20:01N 37°24' E 025°21'0 0.0
2018-Jul-20 19:30N 37°24' E 025°21'0 0.0
2018-Jul-20 19:00N 37°24' E 025°21'0 0.0
2018-Jul-20 18:30N 37°24' E 025°21'0 0.0
2018-Jul-20 18:00N 37°24' E 025°21'0 0.0
2018-Jul-20 17:31N 37°24' E 025°21'0 0.0
2018-Jul-20 17:00N 37°24' E 025°21'0 0.0
2018-Jul-20 16:30N 37°24' E 025°21'0 0.0
2018-Jul-20 16:00N 37°24' E 025°21'0 0.0
2018-Jul-20 15:30N 37°24' E 025°21'0 0.0
2018-Jul-20 15:00N 37°24' E 025°21'0 0.0
2018-Jul-20 14:30N 37°24' E 025°21'0 0.0
2018-Jul-20 14:00N 37°24' E 025°21'0 0.0
2018-Jul-20 13:30N 37°24' E 025°21'0 0.0
2018-Jul-20 13:00N 37°24' E 025°21'0 0.0
2018-Jul-20 12:30N 37°24' E 025°21'0 0.0
2018-Jul-20 12:00N 37°24' E 025°21'0 0.0
2018-Jul-20 11:30N 37°24' E 025°21'0 0.0
2018-Jul-20 11:00N 37°24' E 025°21'0 0.0
2018-Jul-20 10:30N 37°24' E 025°21'0 0.0
2018-Jul-20 10:00N 37°24' E 025°21'0 0.1
2018-Jul-20 09:30N 37°24' E 025°21'2 4.2
2018-Jul-20 09:00N 37°23' E 025°23'510.8
2018-Jul-20 08:30N 37°22' E 025°29'  
Track history (hours):
 
Tides and Currents Weather Stations Pressure Air Temp Water Temp Dewpoint Dewpoint Depression Visibility Wind Speed Wind Dir Waves Ship Positions

Dione Sky

Last reported at 2018-Jul-23 14:30 UTC. Time now 2018-Aug-20 16:48 UTC.
Position N 38°04' E 022°46'.
Warning: this ship's position is 28 days out of date.

Length 46 m; draft 3.2 m.

Type: Other ship. MMSI: 319002500.

Date/timePositionNaut miles runAvg speedWind from/ knotsBaromVisibWave heightAir tempDewpointWater temp
2018-Jul-23 14:30N 38°04' E 022°46'1 1.5
2018-Jul-23 14:00N 38°04' E 022°46'3 5.7
2018-Jul-23 13:30N 38°02' E 022°49'2 4.5
2018-Jul-23 13:00N 38°01' E 022°52'3 6.7
2018-Jul-23 12:30N 37°59' E 022°55'4 7.1
2018-Jul-23 12:00N 37°57' E 022°58'3 5.6
2018-Jul-23 11:30N 37°55' E 023°01'0 0.1
2018-Jul-23 11:00N 37°55' E 023°01'1 1.7
2018-Jul-23 10:30N 37°54' E 023°02'5 9.6
2018-Jul-23 10:00N 37°52' E 023°07'5 9.8
2018-Jul-23 09:30N 37°49' E 023°12'510.1
2018-Jul-23 09:00N 37°47' E 023°18'510.2
2018-Jul-23 08:30N 37°44' E 023°24'1 2.8
2018-Jul-23 08:00N 37°43' E 023°24'0 0.0
2018-Jul-23 07:30N 37°43' E 023°24'0 0.0
2018-Jul-23 07:00N 37°43' E 023°24'0 0.0
2018-Jul-23 06:31N 37°43' E 023°24'0 0.0
2018-Jul-23 06:00N 37°43' E 023°24'0 0.0
2018-Jul-23 05:30N 37°43' E 023°24'0 0.0
2018-Jul-23 05:00N 37°43' E 023°24'0 0.0
2018-Jul-23 04:30N 37°43' E 023°24'0 0.0
2018-Jul-23 04:00N 37°43' E 023°24'0 0.0
2018-Jul-23 03:30N 37°43' E 023°24'0 0.0
2018-Jul-23 03:00N 37°43' E 023°24'0 0.0
2018-Jul-23 02:30N 37°43' E 023°24'0 0.0
2018-Jul-23 02:00N 37°43' E 023°24'0 0.0
2018-Jul-23 01:30N 37°43' E 023°24'0 0.0
2018-Jul-23 01:00N 37°43' E 023°24'0 0.0
2018-Jul-23 00:30N 37°43' E 023°24'0 0.0
2018-Jul-23 00:00N 37°43' E 023°24'0 0.0
2018-Jul-22 23:30N 37°43' E 023°24'0 0.0
2018-Jul-22 23:00N 37°43' E 023°24'0 0.0
2018-Jul-22 22:30N 37°43' E 023°24'1 2.2
2018-Jul-22 22:00N 37°43' E 023°25'2 4.8
2018-Jul-22 21:30N 37°42' E 023°28'0 0.0
2018-Jul-22 20:59N 37°42' E 023°28'0 0.0
2018-Jul-22 20:30N 37°42' E 023°28'0 0.0
2018-Jul-22 20:00N 37°42' E 023°28'0 0.0
2018-Jul-22 19:29N 37°42' E 023°28'0 0.0
2018-Jul-22 19:00N 37°42' E 023°28'0 0.0
2018-Jul-22 18:30N 37°42' E 023°28'0 0.0
2018-Jul-22 18:00N 37°42' E 023°28'0 0.0
2018-Jul-22 17:30N 37°42' E 023°28'0 0.0
2018-Jul-22 17:00N 37°42' E 023°28'0 0.0
2018-Jul-22 16:30N 37°42' E 023°28'0 0.0
2018-Jul-22 16:00N 37°42' E 023°28'0 0.0
2018-Jul-22 15:00N 37°42' E 023°28'0 0.0
2018-Jul-22 14:30N 37°42' E 023°28'0 0.0
2018-Jul-22 14:00N 37°42' E 023°28'0 0.0
2018-Jul-22 13:30N 37°42' E 023°28'0 0.1
2018-Jul-22 13:00N 37°42' E 023°28'0 0.0
2018-Jul-22 12:25N 37°42' E 023°28'0 0.0
2018-Jul-22 11:59N 37°42' E 023°28'0 0.0
2018-Jul-22 11:30N 37°42' E 023°28'0 0.0
2018-Jul-22 11:00N 37°42' E 023°28'0 0.0
2018-Jul-22 10:30N 37°42' E 023°28'0 0.0
2018-Jul-22 09:58N 37°42' E 023°28'0 0.0
2018-Jul-22 09:27N 37°42' E 023°28'0 0.0
2018-Jul-22 08:58N 37°42' E 023°28'0 0.0
2018-Jul-22 08:30N 37°42' E 023°28'0 0.0
2018-Jul-22 07:59N 37°42' E 023°28'0 0.0
2018-Jul-22 07:30N 37°42' E 023°28'0 0.0
2018-Jul-22 07:00N 37°42' E 023°28'0 0.0
2018-Jul-22 06:29N 37°42' E 023°28'0 0.0
2018-Jul-22 06:00N 37°42' E 023°28'0 0.0
2018-Jul-22 05:30N 37°42' E 023°28'0 0.0
2018-Jul-22 05:00N 37°42' E 023°28'0 0.0
2018-Jul-22 04:30N 37°42' E 023°28'0 0.0
2018-Jul-22 03:57N 37°42' E 023°28'0 0.0
2018-Jul-22 03:28N 37°42' E 023°28'0 0.0
2018-Jul-22 03:00N 37°42' E 023°28'0 0.0
2018-Jul-22 02:30N 37°42' E 023°28'0 0.0
2018-Jul-22 01:47N 37°42' E 023°28'0 0.0
2018-Jul-22 01:29N 37°42' E 023°28'0 0.0
2018-Jul-22 01:00N 37°42' E 023°28'0 0.0
2018-Jul-22 00:29N 37°42' E 023°28'0 0.0
2018-Jul-21 23:58N 37°42' E 023°28'0 0.0
2018-Jul-21 23:30N 37°42' E 023°28'0 0.0
2018-Jul-21 23:00N 37°42' E 023°28'0 0.0
2018-Jul-21 22:30N 37°42' E 023°28'0 0.0
2018-Jul-21 22:00N 37°42' E 023°28'0 0.0
2018-Jul-21 21:30N 37°42' E 023°28'0 0.0
2018-Jul-21 21:00N 37°42' E 023°28'0 0.0
2018-Jul-21 20:23N 37°42' E 023°28'0 0.0
2018-Jul-21 19:42N 37°42' E 023°28'0 0.0
2018-Jul-21 19:30N 37°42' E 023°28'0 0.0
2018-Jul-21 19:00N 37°42' E 023°28'0 0.0
2018-Jul-21 18:30N 37°42' E 023°28'0 0.0
2018-Jul-21 18:00N 37°42' E 023°28'0 0.0
2018-Jul-21 17:30N 37°42' E 023°28'0 0.0
2018-Jul-21 17:00N 37°42' E 023°28'0 0.6
2018-Jul-21 16:30N 37°42' E 023°27'3 6.4
2018-Jul-21 16:00N 37°39' E 023°30'611.5
2018-Jul-21 15:30N 37°36' E 023°36'611.4
2018-Jul-21 15:00N 37°34' E 023°42'5210.9
2018-Jul-21 10:13N 37°19' E 024°46'211.0
2018-Jul-21 10:00N 37°19' E 024°48'510.5
2018-Jul-21 09:30N 37°20' E 024°55'510.7
2018-Jul-21 09:00N 37°20' E 025°02'510.5
2018-Jul-21 08:30N 37°21' E 025°08'510.8
2018-Jul-21 08:00N 37°21' E 025°15'510.3
2018-Jul-21 07:30N 37°24' E 025°20'0 0.4
2018-Jul-21 07:00N 37°24' E 025°21'0 0.0
2018-Jul-21 06:30N 37°24' E 025°21'0 0.0
2018-Jul-21 06:00N 37°24' E 025°21'0 0.0
2018-Jul-21 05:30N 37°24' E 025°21'0 0.0
2018-Jul-21 05:00N 37°24' E 025°21'0 0.0
2018-Jul-21 04:30N 37°24' E 025°21'0 0.0
2018-Jul-21 04:00N 37°24' E 025°21'0 0.0
2018-Jul-21 03:30N 37°24' E 025°21'0 0.0
2018-Jul-21 03:00N 37°24' E 025°21'0 0.0
2018-Jul-21 02:30N 37°24' E 025°21'0 0.0
2018-Jul-21 02:00N 37°24' E 025°21'0 0.0
2018-Jul-21 01:30N 37°24' E 025°21'0 0.0
2018-Jul-21 01:00N 37°24' E 025°21'0 0.0
2018-Jul-21 00:30N 37°24' E 025°21'0 0.0
2018-Jul-21 00:00N 37°24' E 025°21'0 0.0
2018-Jul-20 23:30N 37°24' E 025°21'0 0.0
2018-Jul-20 23:00N 37°24' E 025°21'0 0.0
2018-Jul-20 22:30N 37°24' E 025°21'0 0.0
2018-Jul-20 22:00N 37°24' E 025°21'0 0.0
2018-Jul-20 21:30N 37°24' E 025°21'0 0.0
2018-Jul-20 21:00N 37°24' E 025°21'0 0.0
2018-Jul-20 20:30N 37°24' E 025°21'0 0.0
2018-Jul-20 20:01N 37°24' E 025°21'0 0.0
2018-Jul-20 19:30N 37°24' E 025°21'0 0.0
2018-Jul-20 19:00N 37°24' E 025°21'0 0.0
2018-Jul-20 18:30N 37°24' E 025°21'0 0.0
2018-Jul-20 18:00N 37°24' E 025°21'0 0.0
2018-Jul-20 17:31N 37°24' E 025°21'0 0.0
2018-Jul-20 17:00N 37°24' E 025°21'0 0.0
2018-Jul-20 16:30N 37°24' E 025°21'0 0.0
2018-Jul-20 16:00N 37°24' E 025°21'0 0.0
2018-Jul-20 15:30N 37°24' E 025°21'0 0.0
2018-Jul-20 15:00N 37°24' E 025°21'0 0.0
2018-Jul-20 14:30N 37°24' E 025°21'0 0.0
2018-Jul-20 14:00N 37°24' E 025°21'0 0.0
2018-Jul-20 13:30N 37°24' E 025°21'0 0.0
2018-Jul-20 13:00N 37°24' E 025°21'0 0.0
2018-Jul-20 12:30N 37°24' E 025°21'0 0.0
2018-Jul-20 12:00N 37°24' E 025°21'0 0.0
2018-Jul-20 11:30N 37°24' E 025°21'0 0.0
2018-Jul-20 11:00N 37°24' E 025°21'0 0.0
2018-Jul-20 10:30N 37°24' E 025°21'0 0.0
2018-Jul-20 10:00N 37°24' E 025°21'0 0.1
2018-Jul-20 09:30N 37°24' E 025°21'2 4.2
2018-Jul-20 09:00N 37°23' E 025°23'510.8
2018-Jul-20 08:30N 37°22' E 025°29'  

Dump ship's entire track history